createdAt,value
2023-03-05T00:01:49.221Z,100382.72
2023-03-05T00:04:51.153Z,100375.69
2023-03-05T00:07:53.027Z,100383.47
2023-03-05T00:10:59.377Z,100375.72
2023-03-05T00:14:04.127Z,100385.44
2023-03-05T00:17:05.966Z,100381.91
2023-03-05T00:20:08.577Z,100383.63
2023-03-05T00:23:10.573Z,100379.00
2023-03-05T00:26:12.381Z,100378.22
2023-03-05T00:29:19.479Z,100365.00
2023-03-05T00:32:21.422Z,100382.72
2023-03-05T00:35:23.411Z,100378.22
2023-03-05T00:38:25.252Z,100381.00
2023-03-05T00:41:28.401Z,100380.22
2023-03-05T00:44:30.341Z,100383.78
2023-03-05T00:47:32.551Z,100372.31
2023-03-05T00:50:34.322Z,100380.34
2023-03-05T00:53:36.248Z,100365.28
2023-03-05T00:56:38.115Z,100374.16
2023-03-05T00:59:39.998Z,100371.56
2023-03-05T01:02:42.079Z,100366.25
2023-03-05T01:05:44.159Z,100361.84
2023-03-05T01:08:46.099Z,100352.06
2023-03-05T01:11:48.067Z,100358.91
2023-03-05T01:14:49.802Z,100361.44
2023-03-05T01:17:51.983Z,100349.00
2023-03-05T01:20:53.795Z,100343.56
2023-03-05T01:23:55.698Z,100344.38
2023-03-05T01:26:57.774Z,100332.84
2023-03-05T01:29:59.808Z,100334.53
2023-03-05T01:33:02.312Z,100335.28
2023-03-05T01:36:07.722Z,100340.66
2023-03-05T01:39:09.661Z,100343.22
2023-03-05T01:42:11.632Z,100338.84
2023-03-05T01:45:16.535Z,100338.84
2023-03-05T01:48:18.307Z,100345.94
2023-03-05T01:51:22.962Z,100338.03
2023-03-05T01:54:45.988Z,100343.28
2023-03-05T01:58:03.635Z,100339.00
2023-03-05T02:01:05.778Z,100331.84
2023-03-05T02:04:09.474Z,100338.84
2023-03-05T02:07:12.524Z,100334.31
2023-03-05T02:10:26.354Z,100327.19
2023-03-05T02:13:31.784Z,100332.37
2023-03-05T02:16:36.952Z,100334.97
2023-03-05T02:19:54.194Z,100336.66
2023-03-05T02:22:56.463Z,100342.78
2023-03-05T02:25:58.294Z,100337.47
2023-03-05T02:29:01.820Z,100327.69
2023-03-05T02:32:04.241Z,100330.16
2023-03-05T02:35:06.712Z,100333.81
2023-03-05T02:38:08.531Z,100328.44
2023-03-05T02:41:10.733Z,100335.53
2023-03-05T02:44:12.603Z,100339.94
2023-03-05T02:47:14.425Z,100337.28
2023-03-05T02:50:16.503Z,100333.81
2023-03-05T02:53:18.321Z,100326.69
2023-03-05T02:56:20.166Z,100325.00
2023-03-05T02:59:22.066Z,100317.94
2023-03-05T03:02:24.062Z,100315.37
2023-03-05T03:05:25.958Z,100314.38
2023-03-05T03:08:27.779Z,100318.87
2023-03-05T03:11:29.569Z,100323.28
2023-03-05T03:14:39.201Z,100320.66
2023-03-05T03:17:41.108Z,100310.84
2023-03-05T03:20:42.904Z,100312.66
2023-03-05T03:23:44.744Z,100308.19
2023-03-05T03:26:46.541Z,100303.78
2023-03-05T03:29:48.372Z,100310.81
2023-03-05T03:32:51.868Z,100310.81
2023-03-05T03:35:53.776Z,100305.53
2023-03-05T03:38:55.557Z,100303.78
2023-03-05T03:41:57.450Z,100297.69
2023-03-05T03:45:00.589Z,100298.59
2023-03-05T03:48:02.395Z,100293.19
2023-03-05T03:51:06.147Z,100296.66
2023-03-05T03:54:07.892Z,100291.28
2023-03-05T03:57:09.675Z,100294.87
2023-03-05T04:00:12.056Z,100292.97
2023-03-05T04:03:13.949Z,100279.59
2023-03-05T04:06:15.960Z,100277.63
2023-03-05T04:09:18.338Z,100277.37
2023-03-05T04:12:20.877Z,100275.69
2023-03-05T04:15:22.805Z,100277.50
2023-03-05T04:18:24.889Z,100278.16
2023-03-05T04:21:33.207Z,100279.19
2023-03-05T04:24:35.035Z,100286.19
2023-03-05T04:27:40.474Z,100284.31
2023-03-05T04:30:42.381Z,100284.31
2023-03-05T04:33:44.533Z,100288.84
2023-03-05T04:36:46.377Z,100283.44
2023-03-05T04:39:48.129Z,100280.87
2023-03-05T04:42:49.859Z,100272.97
2023-03-05T04:45:51.663Z,100272.13
2023-03-05T04:48:53.778Z,100272.19
2023-03-05T04:51:57.483Z,100277.44
2023-03-05T04:54:59.349Z,100264.19
2023-03-05T04:58:01.081Z,100271.22
2023-03-05T05:01:04.557Z,100277.50
2023-03-05T05:04:06.458Z,100270.38
2023-03-05T05:07:08.348Z,100271.22
2023-03-05T05:10:11.038Z,100278.31
2023-03-05T05:13:12.996Z,100272.09
2023-03-05T05:16:15.607Z,100278.41
2023-03-05T05:19:18.372Z,100266.03
2023-03-05T05:22:20.180Z,100273.06
2023-03-05T05:25:21.986Z,100266.72
2023-03-05T05:28:23.773Z,100272.81
2023-03-05T05:31:25.814Z,100276.25
2023-03-05T05:34:27.637Z,100268.16
2023-03-05T05:37:30.013Z,100265.41
2023-03-05T05:40:31.812Z,100255.56
2023-03-05T05:43:33.670Z,100263.31
2023-03-05T05:46:35.542Z,100265.81
2023-03-05T05:49:37.424Z,100269.34
2023-03-05T05:52:39.296Z,100276.41
2023-03-05T05:55:41.337Z,100283.38
2023-03-05T05:58:44.622Z,100271.75
2023-03-05T06:01:46.666Z,100279.59
2023-03-05T06:04:48.451Z,100283.91
2023-03-05T06:07:50.200Z,100291.78
2023-03-05T06:10:55.540Z,100292.69
2023-03-05T06:13:57.424Z,100289.75
2023-03-05T06:16:59.219Z,100286.19
2023-03-05T06:20:01.157Z,100295.78
2023-03-05T06:23:02.945Z,100293.97
2023-03-05T06:26:07.018Z,100290.41
2023-03-05T06:29:08.803Z,100287.47
2023-03-05T06:32:10.963Z,100291.06
2023-03-05T06:35:14.096Z,100290.94
2023-03-05T06:38:15.940Z,100290.88
2023-03-05T06:41:19.990Z,100300.44
2023-03-05T06:44:22.112Z,100304.78
2023-03-05T06:47:23.950Z,100294.28
2023-03-05T06:50:25.783Z,100307.25
2023-03-05T06:53:28.252Z,100307.12
2023-03-05T06:56:30.189Z,100315.91
2023-03-05T06:59:31.978Z,100301.09
2023-03-05T07:02:34.020Z,100311.44
2023-03-05T07:05:39.079Z,100310.59
2023-03-05T07:08:40.902Z,100306.16
2023-03-05T07:11:42.919Z,100310.72
2023-03-05T07:14:44.736Z,100320.38
2023-03-05T07:17:46.548Z,100319.50
2023-03-05T07:20:48.349Z,100319.66
2023-03-05T07:23:50.631Z,100319.50
2023-03-05T07:26:52.471Z,100322.94
2023-03-05T07:29:54.218Z,100329.09
2023-03-05T07:32:56.056Z,100319.31
2023-03-05T07:35:58.331Z,100316.62
2023-03-05T07:39:00.280Z,100327.84
2023-03-05T07:42:04.323Z,100316.53
2023-03-05T07:45:07.110Z,100313.84
2023-03-05T07:48:13.287Z,100311.81
2023-03-05T07:51:18.012Z,100313.38
2023-03-05T07:54:20.618Z,100308.13
2023-03-05T07:57:23.289Z,100308.00
2023-03-05T08:00:25.402Z,100301.69
2023-03-05T08:03:27.263Z,100309.41
2023-03-05T08:06:29.311Z,100302.31
2023-03-05T08:09:31.139Z,100301.06
2023-03-05T08:12:32.927Z,100299.03
2023-03-05T08:15:34.824Z,100293.75
2023-03-05T08:18:37.058Z,100295.88
2023-03-05T08:21:39.101Z,100286.22
2023-03-05T08:24:40.914Z,100280.81
2023-03-05T08:27:44.185Z,100288.78
2023-03-05T08:30:52.503Z,100277.94
2023-03-05T08:33:55.924Z,100281.63
2023-03-05T08:36:57.805Z,100282.00
2023-03-05T08:39:59.628Z,100279.19
2023-03-05T08:43:01.476Z,100275.59
2023-03-05T08:46:03.776Z,100276.06
2023-03-05T08:49:07.359Z,100277.13
2023-03-05T08:52:09.149Z,100275.03
2023-03-05T08:55:12.468Z,100261.50
2023-03-05T08:58:14.812Z,100265.88
2023-03-05T09:01:16.633Z,100267.97
2023-03-05T09:04:18.782Z,100260.94
2023-03-05T09:07:20.550Z,100264.06
2023-03-05T09:10:22.398Z,100262.41
2023-03-05T09:13:24.220Z,100261.81
2023-03-05T09:16:26.023Z,100258.03
2023-03-05T09:19:27.838Z,100244.37
2023-03-05T09:22:29.906Z,100258.34
2023-03-05T09:25:32.256Z,100258.47
2023-03-05T09:28:34.510Z,100258.41
2023-03-05T09:31:36.971Z,100275.41
2023-03-05T09:34:39.073Z,100278.38
2023-03-05T09:37:40.846Z,100273.56
2023-03-05T09:41:03.412Z,100275.63
2023-03-05T09:44:09.231Z,100280.25
2023-03-05T09:47:26.221Z,100267.09
2023-03-05T09:51:01.111Z,100277.91
2023-03-05T09:54:18.085Z,100280.69
2023-03-05T09:57:23.959Z,100280.81
2023-03-05T10:00:32.719Z,100253.34
2023-03-05T10:03:41.284Z,100259.88
2023-03-05T10:06:49.266Z,100262.59
2023-03-05T10:09:59.880Z,100250.69
2023-03-05T10:13:34.697Z,100236.56
2023-03-05T10:17:15.130Z,100235.16
2023-03-05T10:20:52.442Z,100221.19
2023-03-05T10:24:15.405Z,100212.44
2023-03-05T10:27:54.468Z,100207.34
2023-03-05T10:31:20.099Z,100201.66
2023-03-05T10:34:48.056Z,100197.63
2023-03-05T10:38:00.937Z,100185.97
2023-03-05T10:41:44.258Z,100193.63
2023-03-05T10:44:57.690Z,100186.50
2023-03-05T10:48:05.655Z,100177.25
2023-03-05T10:51:21.402Z,100172.37
2023-03-05T10:54:31.275Z,100166.06
2023-03-05T10:57:33.147Z,100146.03
2023-03-05T11:00:35.076Z,100148.91
2023-03-05T11:03:57.050Z,100114.94
2023-03-05T11:06:58.822Z,100126.28
2023-03-05T11:10:00.607Z,100111.03
2023-03-05T11:13:21.453Z,100114.87
2023-03-05T11:16:47.438Z,100113.69
2023-03-05T11:19:50.323Z,100114.94
2023-03-05T11:23:08.782Z,100105.88
2023-03-05T11:26:13.550Z,100117.91
2023-03-05T11:29:27.136Z,100114.38
2023-03-05T11:32:30.338Z,100121.78
2023-03-05T11:35:35.249Z,100122.50
2023-03-05T11:38:47.396Z,100120.62
2023-03-05T11:41:59.446Z,100111.66
2023-03-05T11:45:01.620Z,100105.56
2023-03-05T11:48:18.320Z,100115.75
2023-03-05T11:51:27.403Z,100109.00
2023-03-05T11:54:58.566Z,100108.72
2023-03-05T11:58:34.243Z,100088.88
2023-03-05T12:01:46.962Z,100093.19
2023-03-05T12:04:50.156Z,100071.44
2023-03-05T12:07:54.218Z,100055.59
2023-03-05T12:10:57.192Z,100068.28
2023-03-05T12:14:06.569Z,100064.13
2023-03-05T12:17:14.437Z,100042.69
2023-03-05T12:20:28.420Z,100040.59
2023-03-05T12:23:45.380Z,100025.25
2023-03-05T12:26:53.405Z,99997.25
2023-03-05T12:29:57.243Z,99988.78
2023-03-05T12:32:59.555Z,99995.09
2023-03-05T12:36:19.734Z,99974.97
2023-03-05T12:39:40.411Z,99992.00
2023-03-05T12:43:03.198Z,99978.87
2023-03-05T12:46:25.901Z,99968.56
2023-03-05T12:49:28.820Z,99949.69
2023-03-05T12:52:33.482Z,99935.59
2023-03-05T12:55:37.124Z,99956.44
2023-03-05T12:58:59.065Z,99931.56
2023-03-05T13:02:04.000Z,99961.06
2023-03-05T13:05:28.030Z,99966.41
2023-03-05T13:08:36.024Z,99979.25
2023-03-05T13:11:39.174Z,99971.16
2023-03-05T13:14:43.199Z,99963.34
2023-03-05T13:17:58.754Z,99975.28
2023-03-05T13:21:08.083Z,99986.16
2023-03-05T13:24:18.663Z,99986.31
2023-03-05T13:27:32.146Z,99994.91
2023-03-05T13:30:34.831Z,99988.78
2023-03-05T13:33:37.567Z,99993.53
2023-03-05T13:36:40.086Z,99979.38
2023-03-05T13:39:59.365Z,99951.38
2023-03-05T13:43:13.511Z,99967.72
2023-03-05T13:46:24.165Z,99958.84
2023-03-05T13:49:28.844Z,99948.91
2023-03-05T13:52:35.411Z,99937.50
2023-03-05T13:55:38.832Z,99930.38
2023-03-05T13:58:48.775Z,99938.19
2023-03-05T14:01:52.712Z,99911.78
2023-03-05T14:04:55.375Z,99910.06
2023-03-05T14:07:57.531Z,99904.75
2023-03-05T14:11:12.219Z,99897.13
2023-03-05T14:14:17.724Z,99911.69
2023-03-05T14:17:31.258Z,99923.31
2023-03-05T14:20:33.485Z,99895.25
2023-03-05T14:23:36.281Z,99913.03
2023-03-05T14:26:41.537Z,99933.53
2023-03-05T14:29:46.462Z,99934.44
2023-03-05T14:32:49.833Z,99935.25
2023-03-05T14:35:52.280Z,99935.38
2023-03-05T14:38:56.886Z,99922.97
2023-03-05T14:42:28.241Z,99910.69
2023-03-05T14:45:34.384Z,99921.59
2023-03-05T14:48:37.109Z,99919.75
2023-03-05T14:51:41.320Z,99925.06
2023-03-05T14:54:43.057Z,99913.34
2023-03-05T14:57:44.933Z,99926.63
2023-03-05T15:00:51.082Z,99913.44
2023-03-05T15:03:53.570Z,99917.59
2023-03-05T15:06:55.714Z,99914.12
2023-03-05T15:09:59.881Z,99912.56
2023-03-05T15:13:02.533Z,99934.03
2023-03-05T15:16:05.764Z,99923.66
2023-03-05T15:19:08.899Z,99928.31
2023-03-05T15:22:12.138Z,99927.22
2023-03-05T15:25:14.504Z,99930.81
2023-03-05T15:28:17.136Z,99934.91
2023-03-05T15:31:19.749Z,99909.56
2023-03-05T15:34:21.739Z,99930.16
2023-03-05T15:37:23.931Z,99910.78
2023-03-05T15:40:27.871Z,99917.37
2023-03-05T15:43:30.813Z,99911.22
2023-03-05T15:46:34.554Z,99920.25
2023-03-05T15:49:36.395Z,99931.59
2023-03-05T15:52:38.685Z,99927.78
2023-03-05T15:55:41.163Z,99930.75
2023-03-05T15:58:43.528Z,99921.06
2023-03-05T16:01:50.223Z,99921.12
2023-03-05T16:04:52.015Z,99915.94
2023-03-05T16:07:55.017Z,99922.63
2023-03-05T16:10:57.255Z,99919.97
2023-03-05T16:14:01.763Z,99905.19
2023-03-05T16:17:05.823Z,99918.47
2023-03-05T16:20:09.200Z,99929.84
2023-03-05T16:23:11.587Z,99915.81
2023-03-05T16:26:13.691Z,99923.03
2023-03-05T16:29:15.800Z,99924.84
2023-03-05T16:32:18.962Z,99923.03
2023-03-05T16:35:21.086Z,99921.66
2023-03-05T16:38:22.945Z,99924.31
2023-03-05T16:41:26.475Z,99924.31
2023-03-05T16:44:28.640Z,99919.16
2023-03-05T16:47:30.818Z,99918.44
2023-03-05T16:50:32.864Z,99918.38
2023-03-05T16:53:35.698Z,99924.59
2023-03-05T16:56:37.639Z,99926.38
2023-03-05T16:59:40.284Z,99927.53
2023-03-05T17:02:42.536Z,99935.47
2023-03-05T17:05:45.820Z,99935.69
2023-03-05T17:08:48.598Z,99923.72
2023-03-05T17:11:51.882Z,99934.19
2023-03-05T17:14:53.975Z,99921.66
2023-03-05T17:17:56.122Z,99939.94
2023-03-05T17:20:58.349Z,99932.97
2023-03-05T17:24:00.575Z,99934.72
2023-03-05T17:27:06.004Z,99926.09
2023-03-05T17:30:09.018Z,99939.75
2023-03-05T17:33:11.595Z,99947.00
2023-03-05T17:36:15.923Z,99932.97
2023-03-05T17:39:19.135Z,99928.53
2023-03-05T17:42:21.312Z,99932.72
2023-03-05T17:45:23.436Z,99935.72
2023-03-05T17:48:26.303Z,99929.28
2023-03-05T17:51:28.553Z,99926.16
2023-03-05T17:54:30.515Z,99922.50
2023-03-05T17:57:32.605Z,99927.94
2023-03-05T18:00:35.689Z,99947.44
2023-03-05T18:03:39.406Z,99938.38
2023-03-05T18:06:41.507Z,99955.97
2023-03-05T18:09:43.428Z,99961.63
2023-03-05T18:12:46.442Z,99954.00
2023-03-05T18:15:48.676Z,99971.81
2023-03-05T18:18:51.287Z,99969.16
2023-03-05T18:21:53.848Z,99971.56
2023-03-05T18:24:56.070Z,99973.53
2023-03-05T18:28:03.791Z,99971.69
2023-03-05T18:31:05.885Z,99970.97
2023-03-05T18:34:10.598Z,99969.28
2023-03-05T18:37:12.789Z,99973.72
2023-03-05T18:40:19.324Z,99973.22
2023-03-05T18:43:22.944Z,99975.41
2023-03-05T18:46:24.950Z,99982.66
2023-03-05T18:49:28.743Z,99984.56
2023-03-05T18:52:31.116Z,99983.09
2023-03-05T18:55:34.286Z,99980.50
2023-03-05T18:58:37.098Z,99980.38
2023-03-05T19:01:39.580Z,99974.16
2023-03-05T19:04:43.029Z,99967.81
2023-03-05T19:07:45.492Z,99969.72
2023-03-05T19:10:49.256Z,99970.66
2023-03-05T19:13:51.737Z,99973.22
2023-03-05T19:16:54.506Z,99970.56
2023-03-05T19:19:58.922Z,99974.50
2023-03-05T19:23:01.143Z,99977.31
2023-03-05T19:26:04.114Z,99978.28
2023-03-05T19:29:07.250Z,99984.41
2023-03-05T19:32:11.441Z,99983.47
2023-03-05T19:35:17.135Z,99987.78
2023-03-05T19:38:20.088Z,99980.66
2023-03-05T19:41:22.348Z,99972.66
2023-03-05T19:44:24.696Z,99975.22
2023-03-05T19:47:27.882Z,99977.84
2023-03-05T19:50:31.808Z,99975.88
2023-03-05T19:53:35.717Z,99965.16
2023-03-05T19:56:41.857Z,99964.28
2023-03-05T19:59:46.061Z,99975.00
2023-03-05T20:02:48.766Z,99975.00
2023-03-05T20:05:50.733Z,99970.69
2023-03-05T20:08:54.933Z,99972.47
2023-03-05T20:11:58.377Z,99972.56
2023-03-05T20:15:00.447Z,99966.31
2023-03-05T20:18:02.278Z,99967.19
2023-03-05T20:21:04.597Z,99962.75
2023-03-05T20:24:12.736Z,99952.97
2023-03-05T20:27:15.280Z,99957.31
2023-03-05T20:30:20.002Z,99952.16
2023-03-05T20:33:23.146Z,99958.62
2023-03-05T20:36:29.110Z,99971.56
2023-03-05T20:39:31.298Z,99972.84
2023-03-05T20:42:33.466Z,99961.22
2023-03-05T20:45:35.620Z,99965.06
2023-03-05T20:48:37.693Z,99973.22
2023-03-05T20:51:40.121Z,99983.16
2023-03-05T20:54:41.894Z,99984.16
2023-03-05T20:57:44.203Z,99979.84
2023-03-05T21:00:46.456Z,99992.09
2023-03-05T21:03:48.562Z,99989.44
2023-03-05T21:06:54.191Z,99993.16
2023-03-05T21:09:56.388Z,99990.66
2023-03-05T21:13:00.787Z,99980.69
2023-03-05T21:16:11.255Z,99998.66
2023-03-05T21:19:13.413Z,99994.28
2023-03-05T21:22:15.539Z,100001.09
2023-03-05T21:25:31.971Z,99993.06
2023-03-05T21:28:35.237Z,99991.69
2023-03-05T21:31:37.537Z,99996.81
2023-03-05T21:34:39.636Z,100003.37
2023-03-05T21:37:42.895Z,100001.66
2023-03-05T21:40:48.520Z,99988.75
2023-03-05T21:43:50.462Z,99976.75
2023-03-05T21:46:52.380Z,99962.37
2023-03-05T21:49:54.147Z,99950.47
2023-03-05T21:52:56.184Z,99933.66
2023-03-05T21:56:25.967Z,99930.22
2023-03-05T21:59:28.066Z,99916.69
2023-03-05T22:02:29.849Z,99920.19
2023-03-05T22:05:31.592Z,99924.47
2023-03-05T22:08:33.332Z,99927.97
2023-03-05T22:11:35.197Z,99929.06
2023-03-05T22:14:36.964Z,99939.47
2023-03-05T22:17:38.830Z,99939.41
2023-03-05T22:20:40.984Z,99942.88
2023-03-05T22:23:42.813Z,99937.63
2023-03-05T22:26:44.634Z,99938.56
2023-03-05T22:29:46.355Z,99947.44
2023-03-05T22:32:48.336Z,99948.53
2023-03-05T22:35:50.303Z,99944.19
2023-03-05T22:38:52.560Z,99964.09
2023-03-05T22:41:54.597Z,99958.03
2023-03-05T22:44:57.769Z,99953.94
2023-03-05T22:47:59.885Z,99963.50
2023-03-05T22:51:01.652Z,99958.13
2023-03-05T22:54:03.536Z,99958.03
2023-03-05T22:57:05.578Z,99962.41
2023-03-05T23:00:13.470Z,99946.78
2023-03-05T23:03:16.120Z,99964.31
2023-03-05T23:06:17.932Z,99953.59
2023-03-05T23:09:19.707Z,99950.13
2023-03-05T23:12:22.415Z,99950.63
2023-03-05T23:15:26.228Z,99960.41
2023-03-05T23:18:28.002Z,99960.53
2023-03-05T23:21:29.715Z,99960.06
2023-03-05T23:24:31.807Z,99965.25
2023-03-05T23:27:33.601Z,99962.56
2023-03-05T23:30:38.801Z,99973.06
2023-03-05T23:33:41.241Z,99976.00
2023-03-05T23:36:43.089Z,99973.38
2023-03-05T23:39:44.804Z,99972.81
2023-03-05T23:42:46.822Z,99979.13
2023-03-05T23:45:49.481Z,100001.41
2023-03-05T23:48:51.398Z,100001.22
2023-03-05T23:51:53.376Z,100006.53
2023-03-05T23:54:55.394Z,99999.66
2023-03-05T23:57:57.185Z,100001.22
